sensor_id;sensor_type;location;lat;lon;timestamp;P1;durP1;ratioP1;P2;durP2;ratioP2
6205;SDS011;3136;48.788;9.772;2023-02-27T00:01:55;2.00;;;1.80;;
6205;SDS011;3136;48.788;9.772;2023-02-27T00:04:21;3.13;;;1.47;;
6205;SDS011;3136;48.788;9.772;2023-02-27T00:06:47;3.27;;;2.33;;
6205;SDS011;3136;48.788;9.772;2023-02-27T00:09:12;4.60;;;2.00;;
6205;SDS011;3136;48.788;9.772;2023-02-27T00:11:38;2.20;;;1.97;;
6205;SDS011;3136;48.788;9.772;2023-02-27T00:14:04;3.63;;;1.90;;
6205;SDS011;3136;48.788;9.772;2023-02-27T00:16:30;3.60;;;1.90;;
6205;SDS011;3136;48.788;9.772;2023-02-27T00:18:55;2.10;;;1.70;;
6205;SDS011;3136;48.788;9.772;2023-02-27T00:21:25;3.50;;;1.80;;
6205;SDS011;3136;48.788;9.772;2023-02-27T00:23:50;2.87;;;1.80;;
6205;SDS011;3136;48.788;9.772;2023-02-27T00:26:16;2.90;;;1.50;;
6205;SDS011;3136;48.788;9.772;2023-02-27T00:28:42;3.87;;;1.60;;
6205;SDS011;3136;48.788;9.772;2023-02-27T00:31:10;2.30;;;1.60;;
6205;SDS011;3136;48.788;9.772;2023-02-27T00:33:35;3.13;;;1.80;;
6205;SDS011;3136;48.788;9.772;2023-02-27T00:36:01;2.33;;;1.73;;
6205;SDS011;3136;48.788;9.772;2023-02-27T00:38:27;2.90;;;2.23;;
6205;SDS011;3136;48.788;9.772;2023-02-27T00:40:53;3.70;;;1.90;;
6205;SDS011;3136;48.788;9.772;2023-02-27T00:43:19;3.23;;;2.20;;
6205;SDS011;3136;48.788;9.772;2023-02-27T00:45:46;3.40;;;2.00;;
6205;SDS011;3136;48.788;9.772;2023-02-27T00:48:12;4.37;;;2.07;;
6205;SDS011;3136;48.788;9.772;2023-02-27T00:50:37;2.67;;;1.53;;
6205;SDS011;3136;48.788;9.772;2023-02-27T00:53:03;2.60;;;1.67;;
6205;SDS011;3136;48.788;9.772;2023-02-27T00:55:29;3.63;;;1.97;;
6205;SDS011;3136;48.788;9.772;2023-02-27T00:57:55;2.10;;;1.60;;
6205;SDS011;3136;48.788;9.772;2023-02-27T01:00:20;3.30;;;1.60;;
6205;SDS011;3136;48.788;9.772;2023-02-27T01:02:46;2.07;;;1.50;;
6205;SDS011;3136;48.788;9.772;2023-02-27T01:05:12;3.43;;;1.80;;
6205;SDS011;3136;48.788;9.772;2023-02-27T01:07:38;3.27;;;1.70;;
6205;SDS011;3136;48.788;9.772;2023-02-27T01:10:04;3.23;;;1.60;;
6205;SDS011;3136;48.788;9.772;2023-02-27T01:12:30;3.20;;;1.60;;
6205;SDS011;3136;48.788;9.772;2023-02-27T01:14:56;2.27;;;1.70;;
6205;SDS011;3136;48.788;9.772;2023-02-27T01:17:21;2.63;;;1.70;;
6205;SDS011;3136;48.788;9.772;2023-02-27T01:19:47;3.77;;;1.40;;
6205;SDS011;3136;48.788;9.772;2023-02-27T01:22:13;2.93;;;1.83;;
6205;SDS011;3136;48.788;9.772;2023-02-27T01:24:38;2.97;;;1.80;;
6205;SDS011;3136;48.788;9.772;2023-02-27T01:27:04;3.57;;;1.80;;
6205;SDS011;3136;48.788;9.772;2023-02-27T01:29:29;4.00;;;1.80;;
6205;SDS011;3136;48.788;9.772;2023-02-27T01:31:55;3.10;;;1.67;;
6205;SDS011;3136;48.788;9.772;2023-02-27T01:34:21;4.40;;;1.87;;
6205;SDS011;3136;48.788;9.772;2023-02-27T01:36:46;2.50;;;1.73;;
6205;SDS011;3136;48.788;9.772;2023-02-27T01:39:12;1.83;;;1.60;;
6205;SDS011;3136;48.788;9.772;2023-02-27T01:41:38;2.73;;;1.47;;
6205;SDS011;3136;48.788;9.772;2023-02-27T01:44:05;2.10;;;1.80;;
6205;SDS011;3136;48.788;9.772;2023-02-27T01:46:35;2.97;;;2.20;;
6205;SDS011;3136;48.788;9.772;2023-02-27T01:51:45;2.50;;;2.00;;
6205;SDS011;3136;48.788;9.772;2023-02-27T01:54:14;3.47;;;1.60;;
6205;SDS011;3136;48.788;9.772;2023-02-27T01:56:43;3.03;;;1.70;;
6205;SDS011;3136;48.788;9.772;2023-02-27T01:59:09;6.00;;;2.20;;
6205;SDS011;3136;48.788;9.772;2023-02-27T02:01:36;2.73;;;1.70;;
6205;SDS011;3136;48.788;9.772;2023-02-27T02:09:27;2.37;;;1.77;;
6205;SDS011;3136;48.788;9.772;2023-02-27T02:11:55;3.17;;;1.80;;
6205;SDS011;3136;48.788;9.772;2023-02-27T02:14:23;2.83;;;1.90;;
6205;SDS011;3136;48.788;9.772;2023-02-27T02:16:53;3.93;;;1.93;;
6205;SDS011;3136;48.788;9.772;2023-02-27T02:19:33;3.93;;;2.10;;
6205;SDS011;3136;48.788;9.772;2023-02-27T02:44:50;4.50;;;1.87;;
6205;SDS011;3136;48.788;9.772;2023-02-27T02:55:34;6.03;;;1.87;;
6205;SDS011;3136;48.788;9.772;2023-02-27T03:00:51;4.13;;;2.10;;
6205;SDS011;3136;48.788;9.772;2023-02-27T03:03:29;5.40;;;2.47;;
6205;SDS011;3136;48.788;9.772;2023-02-27T03:06:09;3.50;;;2.00;;
6205;SDS011;3136;48.788;9.772;2023-02-27T03:08:52;2.80;;;2.00;;
6205;SDS011;3136;48.788;9.772;2023-02-27T03:11:21;4.07;;;2.27;;
6205;SDS011;3136;48.788;9.772;2023-02-27T03:14:12;2.90;;;2.17;;
6205;SDS011;3136;48.788;9.772;2023-02-27T03:16:44;4.43;;;2.10;;
6205;SDS011;3136;48.788;9.772;2023-02-27T03:19:15;3.10;;;2.13;;
6205;SDS011;3136;48.788;9.772;2023-02-27T03:21:46;5.80;;;2.47;;
6205;SDS011;3136;48.788;9.772;2023-02-27T03:24:22;3.63;;;2.40;;
6205;SDS011;3136;48.788;9.772;2023-02-27T03:26:56;3.33;;;1.80;;
6205;SDS011;3136;48.788;9.772;2023-02-27T03:29:37;5.07;;;2.17;;
6205;SDS011;3136;48.788;9.772;2023-02-27T03:32:13;3.70;;;1.87;;
6205;SDS011;3136;48.788;9.772;2023-02-27T03:34:42;4.97;;;2.03;;
6205;SDS011;3136;48.788;9.772;2023-02-27T03:45:15;5.53;;;2.60;;
6205;SDS011;3136;48.788;9.772;2023-02-27T03:47:56;3.70;;;2.23;;
6205;SDS011;3136;48.788;9.772;2023-02-27T03:50:22;2.90;;;2.30;;
6205;SDS011;3136;48.788;9.772;2023-02-27T03:52:48;2.70;;;2.10;;
6205;SDS011;3136;48.788;9.772;2023-02-27T03:55:18;4.10;;;2.70;;
6205;SDS011;3136;48.788;9.772;2023-02-27T03:57:47;3.43;;;2.20;;
6205;SDS011;3136;48.788;9.772;2023-02-27T04:00:15;4.57;;;2.33;;
6205;SDS011;3136;48.788;9.772;2023-02-27T04:02:42;5.00;;;2.13;;
6205;SDS011;3136;48.788;9.772;2023-02-27T04:05:09;4.47;;;2.50;;
6205;SDS011;3136;48.788;9.772;2023-02-27T04:07:47;3.67;;;2.20;;
6205;SDS011;3136;48.788;9.772;2023-02-27T04:10:43;2.83;;;2.27;;
6205;SDS011;3136;48.788;9.772;2023-02-27T04:13:38;5.03;;;2.30;;
6205;SDS011;3136;48.788;9.772;2023-02-27T04:16:43;4.03;;;2.10;;
6205;SDS011;3136;48.788;9.772;2023-02-27T04:30:29;3.00;;;2.10;;
6205;SDS011;3136;48.788;9.772;2023-02-27T04:33:08;4.47;;;2.37;;
6205;SDS011;3136;48.788;9.772;2023-02-27T04:36:02;4.60;;;2.37;;
6205;SDS011;3136;48.788;9.772;2023-02-27T04:41:37;3.87;;;2.50;;
6205;SDS011;3136;48.788;9.772;2023-02-27T04:44:13;5.40;;;2.40;;
6205;SDS011;3136;48.788;9.772;2023-02-27T04:46:41;3.23;;;2.40;;
6205;SDS011;3136;48.788;9.772;2023-02-27T04:49:19;3.93;;;2.60;;
6205;SDS011;3136;48.788;9.772;2023-02-27T04:52:03;4.33;;;2.57;;
6205;SDS011;3136;48.788;9.772;2023-02-27T04:54:38;3.60;;;2.60;;
6205;SDS011;3136;48.788;9.772;2023-02-27T04:57:11;4.17;;;2.60;;
6205;SDS011;3136;48.788;9.772;2023-02-27T04:59:44;3.73;;;2.43;;
6205;SDS011;3136;48.788;9.772;2023-02-27T05:02:21;4.93;;;2.63;;
6205;SDS011;3136;48.788;9.772;2023-02-27T05:04:54;3.63;;;2.47;;
6205;SDS011;3136;48.788;9.772;2023-02-27T05:07:34;6.30;;;2.67;;
6205;SDS011;3136;48.788;9.772;2023-02-27T05:10:13;4.67;;;2.60;;
6205;SDS011;3136;48.788;9.772;2023-02-27T05:13:20;3.97;;;2.70;;
6205;SDS011;3136;48.788;9.772;2023-02-27T05:15:53;3.40;;;2.50;;
6205;SDS011;3136;48.788;9.772;2023-02-27T05:18:32;3.80;;;2.50;;
6205;SDS011;3136;48.788;9.772;2023-02-27T05:29:26;4.73;;;2.87;;
6205;SDS011;3136;48.788;9.772;2023-02-27T05:32:17;4.37;;;2.60;;
6205;SDS011;3136;48.788;9.772;2023-02-27T05:35:08;5.53;;;2.97;;
6205;SDS011;3136;48.788;9.772;2023-02-27T05:37:50;4.33;;;2.77;;
6205;SDS011;3136;48.788;9.772;2023-02-27T05:40:31;5.53;;;3.10;;
6205;SDS011;3136;48.788;9.772;2023-02-27T05:43:17;6.57;;;2.97;;
6205;SDS011;3136;48.788;9.772;2023-02-27T05:45:47;7.20;;;2.90;;
6205;SDS011;3136;48.788;9.772;2023-02-27T05:48:19;4.93;;;2.90;;
6205;SDS011;3136;48.788;9.772;2023-02-27T05:50:56;7.00;;;2.90;;
6205;SDS011;3136;48.788;9.772;2023-02-27T05:53:23;6.17;;;3.50;;
6205;SDS011;3136;48.788;9.772;2023-02-27T05:55:54;4.20;;;3.20;;
6205;SDS011;3136;48.788;9.772;2023-02-27T05:58:37;5.40;;;3.10;;
6205;SDS011;3136;48.788;9.772;2023-02-27T06:01:10;6.07;;;2.90;;
6205;SDS011;3136;48.788;9.772;2023-02-27T06:03:36;5.43;;;3.27;;
6205;SDS011;3136;48.788;9.772;2023-02-27T06:06:05;4.43;;;2.77;;
6205;SDS011;3136;48.788;9.772;2023-02-27T06:08:33;9.43;;;4.30;;
6205;SDS011;3136;48.788;9.772;2023-02-27T06:10:59;8.27;;;3.77;;
6205;SDS011;3136;48.788;9.772;2023-02-27T06:13:24;6.10;;;3.47;;
6205;SDS011;3136;48.788;9.772;2023-02-27T06:15:50;5.93;;;3.60;;
6205;SDS011;3136;48.788;9.772;2023-02-27T06:18:16;8.13;;;3.60;;
6205;SDS011;3136;48.788;9.772;2023-02-27T06:20:43;4.97;;;3.77;;
6205;SDS011;3136;48.788;9.772;2023-02-27T06:23:09;5.47;;;3.50;;
6205;SDS011;3136;48.788;9.772;2023-02-27T06:25:35;5.10;;;3.53;;
6205;SDS011;3136;48.788;9.772;2023-02-27T06:28:02;7.53;;;3.70;;
6205;SDS011;3136;48.788;9.772;2023-02-27T06:30:28;6.00;;;3.50;;
6205;SDS011;3136;48.788;9.772;2023-02-27T06:32:54;6.67;;;3.70;;
6205;SDS011;3136;48.788;9.772;2023-02-27T06:35:19;6.40;;;3.77;;
6205;SDS011;3136;48.788;9.772;2023-02-27T06:37:45;8.17;;;3.73;;
6205;SDS011;3136;48.788;9.772;2023-02-27T06:40:11;8.73;;;4.53;;
6205;SDS011;3136;48.788;9.772;2023-02-27T06:42:38;9.80;;;4.30;;
6205;SDS011;3136;48.788;9.772;2023-02-27T06:45:05;5.53;;;3.10;;
6205;SDS011;3136;48.788;9.772;2023-02-27T06:47:31;4.27;;;3.40;;
6205;SDS011;3136;48.788;9.772;2023-02-27T06:49:57;5.33;;;3.20;;
6205;SDS011;3136;48.788;9.772;2023-02-27T06:52:23;6.07;;;3.40;;
6205;SDS011;3136;48.788;9.772;2023-02-27T06:54:49;6.53;;;3.30;;
6205;SDS011;3136;48.788;9.772;2023-02-27T06:57:15;6.10;;;3.40;;
6205;SDS011;3136;48.788;9.772;2023-02-27T06:59:40;5.50;;;3.50;;
6205;SDS011;3136;48.788;9.772;2023-02-27T07:02:08;7.03;;;3.43;;
6205;SDS011;3136;48.788;9.772;2023-02-27T07:04:34;5.13;;;3.97;;
6205;SDS011;3136;48.788;9.772;2023-02-27T07:07:01;7.93;;;4.43;;
6205;SDS011;3136;48.788;9.772;2023-02-27T07:09:26;8.20;;;3.70;;
6205;SDS011;3136;48.788;9.772;2023-02-27T07:11:52;6.43;;;3.83;;
6205;SDS011;3136;48.788;9.772;2023-02-27T07:14:18;9.53;;;4.63;;
6205;SDS011;3136;48.788;9.772;2023-02-27T07:16:43;7.47;;;4.00;;
6205;SDS011;3136;48.788;9.772;2023-02-27T07:19:11;8.00;;;4.33;;
6205;SDS011;3136;48.788;9.772;2023-02-27T07:21:36;4.97;;;3.27;;
6205;SDS011;3136;48.788;9.772;2023-02-27T07:24:02;6.50;;;3.50;;
6205;SDS011;3136;48.788;9.772;2023-02-27T07:26:28;7.83;;;4.50;;
6205;SDS011;3136;48.788;9.772;2023-02-27T07:28:54;7.63;;;4.00;;
6205;SDS011;3136;48.788;9.772;2023-02-27T07:31:19;4.40;;;3.07;;
6205;SDS011;3136;48.788;9.772;2023-02-27T07:33:45;6.90;;;3.03;;
6205;SDS011;3136;48.788;9.772;2023-02-27T07:36:10;4.43;;;2.93;;
6205;SDS011;3136;48.788;9.772;2023-02-27T07:38:36;6.03;;;3.40;;
6205;SDS011;3136;48.788;9.772;2023-02-27T07:41:02;4.30;;;2.73;;
6205;SDS011;3136;48.788;9.772;2023-02-27T07:43:27;5.50;;;3.20;;
6205;SDS011;3136;48.788;9.772;2023-02-27T07:45:53;5.43;;;3.07;;
6205;SDS011;3136;48.788;9.772;2023-02-27T07:48:18;3.53;;;2.67;;
6205;SDS011;3136;48.788;9.772;2023-02-27T07:50:44;5.03;;;2.83;;
6205;SDS011;3136;48.788;9.772;2023-02-27T07:53:09;3.73;;;2.93;;
6205;SDS011;3136;48.788;9.772;2023-02-27T07:55:37;5.83;;;3.00;;
6205;SDS011;3136;48.788;9.772;2023-02-27T07:58:02;5.30;;;2.97;;
6205;SDS011;3136;48.788;9.772;2023-02-27T08:00:29;5.33;;;2.73;;
6205;SDS011;3136;48.788;9.772;2023-02-27T08:02:55;4.47;;;2.60;;
6205;SDS011;3136;48.788;9.772;2023-02-27T08:05:20;4.00;;;2.80;;
6205;SDS011;3136;48.788;9.772;2023-02-27T08:07:46;3.40;;;2.43;;
6205;SDS011;3136;48.788;9.772;2023-02-27T08:10:11;9.07;;;3.50;;
6205;SDS011;3136;48.788;9.772;2023-02-27T08:12:39;4.50;;;2.73;;
6205;SDS011;3136;48.788;9.772;2023-02-27T08:15:05;4.67;;;2.77;;
6205;SDS011;3136;48.788;9.772;2023-02-27T08:17:31;4.10;;;2.73;;
6205;SDS011;3136;48.788;9.772;2023-02-27T08:19:56;9.10;;;2.70;;
6205;SDS011;3136;48.788;9.772;2023-02-27T08:22:22;4.07;;;2.70;;
6205;SDS011;3136;48.788;9.772;2023-02-27T08:24:47;4.80;;;2.60;;
6205;SDS011;3136;48.788;9.772;2023-02-27T08:27:13;4.77;;;2.80;;
6205;SDS011;3136;48.788;9.772;2023-02-27T08:29:38;5.97;;;2.97;;
6205;SDS011;3136;48.788;9.772;2023-02-27T08:32:05;3.90;;;2.63;;
6205;SDS011;3136;48.788;9.772;2023-02-27T08:34:31;6.30;;;2.70;;
6205;SDS011;3136;48.788;9.772;2023-02-27T08:36:56;5.23;;;2.90;;
6205;SDS011;3136;48.788;9.772;2023-02-27T08:39:23;5.63;;;2.70;;
6205;SDS011;3136;48.788;9.772;2023-02-27T08:41:49;4.10;;;2.67;;
6205;SDS011;3136;48.788;9.772;2023-02-27T08:44:16;4.90;;;2.97;;
6205;SDS011;3136;48.788;9.772;2023-02-27T08:46:42;4.43;;;2.70;;
6205;SDS011;3136;48.788;9.772;2023-02-27T08:49:08;8.37;;;2.57;;
6205;SDS011;3136;48.788;9.772;2023-02-27T08:51:33;3.13;;;2.57;;
6205;SDS011;3136;48.788;9.772;2023-02-27T08:53:59;4.00;;;2.30;;
6205;SDS011;3136;48.788;9.772;2023-02-27T08:56:25;4.40;;;2.53;;
6205;SDS011;3136;48.788;9.772;2023-02-27T08:58:51;4.63;;;2.90;;
6205;SDS011;3136;48.788;9.772;2023-02-27T09:01:17;5.43;;;2.60;;
6205;SDS011;3136;48.788;9.772;2023-02-27T09:03:43;3.90;;;2.80;;
6205;SDS011;3136;48.788;9.772;2023-02-27T09:06:09;6.53;;;3.00;;
6205;SDS011;3136;48.788;9.772;2023-02-27T09:08:35;6.27;;;2.87;;
6205;SDS011;3136;48.788;9.772;2023-02-27T09:11:01;5.23;;;2.80;;
6205;SDS011;3136;48.788;9.772;2023-02-27T09:13:27;5.73;;;2.33;;
6205;SDS011;3136;48.788;9.772;2023-02-27T09:15:52;5.37;;;2.50;;
6205;SDS011;3136;48.788;9.772;2023-02-27T09:18:19;10.07;;;2.93;;
6205;SDS011;3136;48.788;9.772;2023-02-27T09:20:44;3.77;;;2.63;;
6205;SDS011;3136;48.788;9.772;2023-02-27T09:23:10;7.23;;;3.10;;
6205;SDS011;3136;48.788;9.772;2023-02-27T09:25:35;4.17;;;2.57;;
6205;SDS011;3136;48.788;9.772;2023-02-27T09:28:01;5.63;;;3.23;;
6205;SDS011;3136;48.788;9.772;2023-02-27T09:30:27;3.83;;;2.60;;
6205;SDS011;3136;48.788;9.772;2023-02-27T09:32:52;3.30;;;2.40;;
6205;SDS011;3136;48.788;9.772;2023-02-27T09:35:18;3.80;;;2.63;;
6205;SDS011;3136;48.788;9.772;2023-02-27T09:37:46;3.80;;;2.27;;
6205;SDS011;3136;48.788;9.772;2023-02-27T09:40:23;3.97;;;2.73;;
6205;SDS011;3136;48.788;9.772;2023-02-27T09:42:52;4.93;;;2.57;;
6205;SDS011;3136;48.788;9.772;2023-02-27T09:45:28;7.03;;;2.60;;
6205;SDS011;3136;48.788;9.772;2023-02-27T09:47:59;7.30;;;2.87;;
6205;SDS011;3136;48.788;9.772;2023-02-27T09:53:05;5.53;;;2.40;;
6205;SDS011;3136;48.788;9.772;2023-02-27T09:55:38;5.03;;;2.10;;
6205;SDS011;3136;48.788;9.772;2023-02-27T09:58:06;5.17;;;2.53;;
6205;SDS011;3136;48.788;9.772;2023-02-27T10:03:10;3.73;;;2.20;;
6205;SDS011;3136;48.788;9.772;2023-02-27T10:05:52;5.23;;;2.50;;
6205;SDS011;3136;48.788;9.772;2023-02-27T10:11:03;4.57;;;2.40;;
6205;SDS011;3136;48.788;9.772;2023-02-27T10:13:35;4.17;;;2.20;;
6205;SDS011;3136;48.788;9.772;2023-02-27T10:16:14;3.60;;;2.00;;
6205;SDS011;3136;48.788;9.772;2023-02-27T10:21:44;3.90;;;2.27;;
6205;SDS011;3136;48.788;9.772;2023-02-27T10:26:54;3.57;;;2.00;;
6205;SDS011;3136;48.788;9.772;2023-02-27T10:29:34;2.17;;;1.80;;
6205;SDS011;3136;48.788;9.772;2023-02-27T10:35:06;4.10;;;2.07;;
6205;SDS011;3136;48.788;9.772;2023-02-27T10:37:32;3.40;;;2.10;;
6205;SDS011;3136;48.788;9.772;2023-02-27T10:40:05;4.67;;;2.03;;
6205;SDS011;3136;48.788;9.772;2023-02-27T10:42:32;4.50;;;1.70;;
6205;SDS011;3136;48.788;9.772;2023-02-27T10:45:02;6.60;;;1.90;;
6205;SDS011;3136;48.788;9.772;2023-02-27T10:47:28;3.80;;;2.13;;
6205;SDS011;3136;48.788;9.772;2023-02-27T10:49:55;2.40;;;2.00;;
6205;SDS011;3136;48.788;9.772;2023-02-27T10:52:20;4.63;;;2.17;;
6205;SDS011;3136;48.788;9.772;2023-02-27T10:54:46;2.97;;;1.73;;
6205;SDS011;3136;48.788;9.772;2023-02-27T10:57:27;5.30;;;2.10;;
6205;SDS011;3136;48.788;9.772;2023-02-27T10:59:57;3.87;;;2.00;;
6205;SDS011;3136;48.788;9.772;2023-02-27T11:02:47;2.97;;;1.87;;
6205;SDS011;3136;48.788;9.772;2023-02-27T11:05:24;3.23;;;1.93;;
6205;SDS011;3136;48.788;9.772;2023-02-27T11:07:52;3.83;;;2.10;;
6205;SDS011;3136;48.788;9.772;2023-02-27T11:10:24;4.03;;;1.93;;
6205;SDS011;3136;48.788;9.772;2023-02-27T11:12:59;5.07;;;1.93;;
6205;SDS011;3136;48.788;9.772;2023-02-27T11:15:42;1.73;;;1.63;;
6205;SDS011;3136;48.788;9.772;2023-02-27T11:18:24;2.77;;;2.00;;
6205;SDS011;3136;48.788;9.772;2023-02-27T11:20:53;5.03;;;2.20;;
6205;SDS011;3136;48.788;9.772;2023-02-27T11:23:33;4.17;;;2.00;;
6205;SDS011;3136;48.788;9.772;2023-02-27T11:26:10;2.57;;;1.67;;
6205;SDS011;3136;48.788;9.772;2023-02-27T11:28:40;5.90;;;2.20;;
6205;SDS011;3136;48.788;9.772;2023-02-27T11:31:13;6.40;;;2.30;;
6205;SDS011;3136;48.788;9.772;2023-02-27T11:33:47;3.37;;;2.27;;
6205;SDS011;3136;48.788;9.772;2023-02-27T11:36:15;4.23;;;2.83;;
6205;SDS011;3136;48.788;9.772;2023-02-27T11:38:41;3.00;;;1.97;;
6205;SDS011;3136;48.788;9.772;2023-02-27T11:41:16;4.97;;;1.90;;
6205;SDS011;3136;48.788;9.772;2023-02-27T11:43:47;3.17;;;2.00;;
6205;SDS011;3136;48.788;9.772;2023-02-27T11:46:21;4.00;;;1.90;;
6205;SDS011;3136;48.788;9.772;2023-02-27T11:48:54;3.70;;;1.80;;
6205;SDS011;3136;48.788;9.772;2023-02-27T11:51:57;5.07;;;2.10;;
6205;SDS011;3136;48.788;9.772;2023-02-27T11:59:46;3.27;;;1.80;;
6205;SDS011;3136;48.788;9.772;2023-02-27T12:02:27;6.83;;;2.20;;
6205;SDS011;3136;48.788;9.772;2023-02-27T12:04:55;6.40;;;2.30;;
6205;SDS011;3136;48.788;9.772;2023-02-27T12:07:34;6.03;;;2.30;;
6205;SDS011;3136;48.788;9.772;2023-02-27T12:10:24;3.97;;;2.23;;
6205;SDS011;3136;48.788;9.772;2023-02-27T12:12:55;4.70;;;2.30;;
6205;SDS011;3136;48.788;9.772;2023-02-27T12:18:56;2.63;;;1.83;;
6205;SDS011;3136;48.788;9.772;2023-02-27T12:21:38;5.80;;;1.70;;
6205;SDS011;3136;48.788;9.772;2023-02-27T12:24:24;2.40;;;1.80;;
6205;SDS011;3136;48.788;9.772;2023-02-27T12:27:10;2.83;;;1.63;;
6205;SDS011;3136;48.788;9.772;2023-02-27T12:32:30;2.57;;;1.77;;
6205;SDS011;3136;48.788;9.772;2023-02-27T12:35:21;5.00;;;2.07;;
6205;SDS011;3136;48.788;9.772;2023-02-27T12:37:51;3.77;;;1.80;;
6205;SDS011;3136;48.788;9.772;2023-02-27T12:40:18;9.90;;;2.20;;
6205;SDS011;3136;48.788;9.772;2023-02-27T12:45:54;4.37;;;2.00;;
6205;SDS011;3136;48.788;9.772;2023-02-27T12:53:59;3.60;;;1.50;;
6205;SDS011;3136;48.788;9.772;2023-02-27T13:05:05;2.63;;;1.70;;
6205;SDS011;3136;48.788;9.772;2023-02-27T13:13:30;6.63;;;1.90;;
6205;SDS011;3136;48.788;9.772;2023-02-27T13:16:21;4.00;;;1.90;;
6205;SDS011;3136;48.788;9.772;2023-02-27T13:18:57;2.30;;;1.87;;
6205;SDS011;3136;48.788;9.772;2023-02-27T13:21:31;3.40;;;1.97;;
6205;SDS011;3136;48.788;9.772;2023-02-27T13:26:45;2.00;;;1.80;;
6205;SDS011;3136;48.788;9.772;2023-02-27T13:29:16;2.47;;;1.90;;
6205;SDS011;3136;48.788;9.772;2023-02-27T13:31:58;2.40;;;1.50;;
6205;SDS011;3136;48.788;9.772;2023-02-27T13:34:42;3.47;;;1.50;;
6205;SDS011;3136;48.788;9.772;2023-02-27T13:37:12;2.10;;;1.70;;
6205;SDS011;3136;48.788;9.772;2023-02-27T13:44:55;2.57;;;1.60;;
6205;SDS011;3136;48.788;9.772;2023-02-27T13:49:54;2.80;;;1.80;;
6205;SDS011;3136;48.788;9.772;2023-02-27T13:52:30;5.47;;;1.93;;
6205;SDS011;3136;48.788;9.772;2023-02-27T13:54:58;4.13;;;1.90;;
6205;SDS011;3136;48.788;9.772;2023-02-27T13:57:28;3.77;;;2.00;;
6205;SDS011;3136;48.788;9.772;2023-02-27T13:59:58;3.73;;;2.17;;
6205;SDS011;3136;48.788;9.772;2023-02-27T14:02:42;4.27;;;1.50;;
6205;SDS011;3136;48.788;9.772;2023-02-27T14:05:15;4.70;;;2.07;;
6205;SDS011;3136;48.788;9.772;2023-02-27T14:07:49;2.20;;;1.40;;
6205;SDS011;3136;48.788;9.772;2023-02-27T14:10:28;3.60;;;1.90;;
6205;SDS011;3136;48.788;9.772;2023-02-27T14:12:55;5.63;;;1.97;;
6205;SDS011;3136;48.788;9.772;2023-02-27T14:18:44;2.57;;;1.70;;
6205;SDS011;3136;48.788;9.772;2023-02-27T14:21:48;4.07;;;1.70;;
6205;SDS011;3136;48.788;9.772;2023-02-27T14:24:16;2.67;;;1.93;;
6205;SDS011;3136;48.788;9.772;2023-02-27T14:26:44;2.87;;;2.00;;
6205;SDS011;3136;48.788;9.772;2023-02-27T14:29:21;6.63;;;1.90;;
6205;SDS011;3136;48.788;9.772;2023-02-27T14:31:49;2.47;;;1.60;;
6205;SDS011;3136;48.788;9.772;2023-02-27T14:34:19;2.13;;;1.67;;
6205;SDS011;3136;48.788;9.772;2023-02-27T14:36:50;2.43;;;1.83;;
6205;SDS011;3136;48.788;9.772;2023-02-27T14:41:49;4.20;;;1.93;;
6205;SDS011;3136;48.788;9.772;2023-02-27T14:44:26;3.43;;;2.00;;
6205;SDS011;3136;48.788;9.772;2023-02-27T14:46:53;3.70;;;1.70;;
6205;SDS011;3136;48.788;9.772;2023-02-27T14:51:51;3.00;;;1.40;;
6205;SDS011;3136;48.788;9.772;2023-02-27T14:54:19;4.23;;;1.70;;
6205;SDS011;3136;48.788;9.772;2023-02-27T14:56:57;3.73;;;1.77;;
6205;SDS011;3136;48.788;9.772;2023-02-27T14:59:26;2.43;;;1.50;;
6205;SDS011;3136;48.788;9.772;2023-02-27T15:02:00;6.47;;;2.00;;
6205;SDS011;3136;48.788;9.772;2023-02-27T15:04:28;2.80;;;1.70;;
6205;SDS011;3136;48.788;9.772;2023-02-27T15:06:56;3.33;;;1.60;;
6205;SDS011;3136;48.788;9.772;2023-02-27T15:09:23;4.00;;;1.80;;
6205;SDS011;3136;48.788;9.772;2023-02-27T15:11:58;3.27;;;1.67;;
6205;SDS011;3136;48.788;9.772;2023-02-27T15:14:29;2.97;;;1.53;;
6205;SDS011;3136;48.788;9.772;2023-02-27T15:16:59;2.90;;;1.80;;
6205;SDS011;3136;48.788;9.772;2023-02-27T15:19:26;3.47;;;1.50;;
6205;SDS011;3136;48.788;9.772;2023-02-27T15:21:59;5.37;;;1.73;;
6205;SDS011;3136;48.788;9.772;2023-02-27T15:24:30;3.77;;;1.60;;
6205;SDS011;3136;48.788;9.772;2023-02-27T15:26:58;3.53;;;1.60;;
6205;SDS011;3136;48.788;9.772;2023-02-27T15:29:29;2.67;;;1.57;;
6205;SDS011;3136;48.788;9.772;2023-02-27T15:32:01;4.27;;;1.47;;
6205;SDS011;3136;48.788;9.772;2023-02-27T15:34:28;5.33;;;1.60;;
6205;SDS011;3136;48.788;9.772;2023-02-27T15:36:55;2.30;;;1.50;;
6205;SDS011;3136;48.788;9.772;2023-02-27T15:39:22;9.03;;;1.60;;
6205;SDS011;3136;48.788;9.772;2023-02-27T15:41:51;4.17;;;2.13;;
6205;SDS011;3136;48.788;9.772;2023-02-27T15:44:29;3.97;;;1.70;;
6205;SDS011;3136;48.788;9.772;2023-02-27T15:47:15;3.77;;;1.70;;
6205;SDS011;3136;48.788;9.772;2023-02-27T15:49:47;1.97;;;1.50;;
6205;SDS011;3136;48.788;9.772;2023-02-27T15:52:24;4.27;;;1.87;;
6205;SDS011;3136;48.788;9.772;2023-02-27T15:54:59;5.43;;;1.93;;
6205;SDS011;3136;48.788;9.772;2023-02-27T15:57:27;4.27;;;1.83;;
6205;SDS011;3136;48.788;9.772;2023-02-27T15:59:54;3.30;;;1.40;;
6205;SDS011;3136;48.788;9.772;2023-02-27T16:02:56;3.43;;;1.77;;
6205;SDS011;3136;48.788;9.772;2023-02-27T16:05:17;2.80;;;1.50;;
6205;SDS011;3136;48.788;9.772;2023-02-27T16:07:45;4.90;;;2.00;;
6205;SDS011;3136;48.788;9.772;2023-02-27T16:10:33;3.37;;;1.67;;
6205;SDS011;3136;48.788;9.772;2023-02-27T16:15:56;3.97;;;1.70;;
6205;SDS011;3136;48.788;9.772;2023-02-27T16:18:30;6.87;;;2.03;;
6205;SDS011;3136;48.788;9.772;2023-02-27T16:21:12;6.43;;;1.93;;
6205;SDS011;3136;48.788;9.772;2023-02-27T16:23:40;6.63;;;2.10;;
6205;SDS011;3136;48.788;9.772;2023-02-27T16:26:23;2.80;;;1.70;;
6205;SDS011;3136;48.788;9.772;2023-02-27T16:31:37;3.73;;;1.87;;
6205;SDS011;3136;48.788;9.772;2023-02-27T16:36:52;4.10;;;2.13;;
6205;SDS011;3136;48.788;9.772;2023-02-27T16:39:20;5.37;;;2.70;;
6205;SDS011;3136;48.788;9.772;2023-02-27T16:41:46;3.10;;;2.13;;
6205;SDS011;3136;48.788;9.772;2023-02-27T16:44:12;4.03;;;2.40;;
6205;SDS011;3136;48.788;9.772;2023-02-27T16:46:37;3.27;;;1.80;;
6205;SDS011;3136;48.788;9.772;2023-02-27T16:49:03;4.97;;;2.40;;
6205;SDS011;3136;48.788;9.772;2023-02-27T16:51:30;6.87;;;2.90;;
6205;SDS011;3136;48.788;9.772;2023-02-27T16:53:57;4.97;;;2.10;;
6205;SDS011;3136;48.788;9.772;2023-02-27T16:56:25;6.50;;;2.73;;
6205;SDS011;3136;48.788;9.772;2023-02-27T16:58:51;13.87;;;5.57;;
6205;SDS011;3136;48.788;9.772;2023-02-27T17:01:17;5.87;;;2.50;;
6205;SDS011;3136;48.788;9.772;2023-02-27T17:03:43;2.80;;;1.80;;
6205;SDS011;3136;48.788;9.772;2023-02-27T17:06:10;4.53;;;2.47;;
6205;SDS011;3136;48.788;9.772;2023-02-27T17:08:38;2.77;;;1.63;;
6205;SDS011;3136;48.788;9.772;2023-02-27T17:11:05;3.13;;;1.77;;
6205;SDS011;3136;48.788;9.772;2023-02-27T17:13:31;3.93;;;1.80;;
6205;SDS011;3136;48.788;9.772;2023-02-27T17:16:00;2.10;;;1.70;;
6205;SDS011;3136;48.788;9.772;2023-02-27T17:18:29;2.20;;;1.80;;
6205;SDS011;3136;48.788;9.772;2023-02-27T17:20:55;4.70;;;2.23;;
6205;SDS011;3136;48.788;9.772;2023-02-27T17:23:24;2.77;;;1.80;;
6205;SDS011;3136;48.788;9.772;2023-02-27T17:25:51;2.47;;;1.50;;
6205;SDS011;3136;48.788;9.772;2023-02-27T17:28:17;2.63;;;1.87;;
6205;SDS011;3136;48.788;9.772;2023-02-27T17:30:43;1.77;;;1.60;;
6205;SDS011;3136;48.788;9.772;2023-02-27T17:33:08;2.47;;;1.80;;
6205;SDS011;3136;48.788;9.772;2023-02-27T17:35:34;2.57;;;1.70;;
6205;SDS011;3136;48.788;9.772;2023-02-27T17:37:59;2.93;;;2.07;;
6205;SDS011;3136;48.788;9.772;2023-02-27T17:40:25;2.07;;;1.60;;
6205;SDS011;3136;48.788;9.772;2023-02-27T17:42:51;3.60;;;2.00;;
6205;SDS011;3136;48.788;9.772;2023-02-27T17:45:16;2.60;;;1.70;;
6205;SDS011;3136;48.788;9.772;2023-02-27T17:47:45;3.97;;;2.00;;
6205;SDS011;3136;48.788;9.772;2023-02-27T17:50:11;2.07;;;1.60;;
6205;SDS011;3136;48.788;9.772;2023-02-27T17:52:37;3.10;;;1.80;;
6205;SDS011;3136;48.788;9.772;2023-02-27T17:55:03;2.30;;;1.97;;
6205;SDS011;3136;48.788;9.772;2023-02-27T17:57:29;2.87;;;2.00;;
6205;SDS011;3136;48.788;9.772;2023-02-27T17:59:58;3.37;;;1.90;;
6205;SDS011;3136;48.788;9.772;2023-02-27T18:02:23;3.47;;;2.10;;
6205;SDS011;3136;48.788;9.772;2023-02-27T18:04:49;2.90;;;2.00;;
6205;SDS011;3136;48.788;9.772;2023-02-27T18:07:14;2.00;;;1.80;;